Littleton, CO (80120)

02:42 PM MST del 18 Dicembre 2014 (GMT -0700)
Arapahoe Community College | Change Station
CLOSE
Current Station
Stazione meteo personale
Location: Littleton, CO
Altitudine: 5371 ft
Stazioni meteo nelle vicinanze

Alt. 5371 ft 39.61 °N, 105.02 °W | Updated 6 minutes ago

Parzialmente nuvoloso
Parzialmente nuvoloso
46.0 °F
Sembra 46 °F
N
0.0
Vento Variabile Vento da Nord
Gusts 0.0 mph

Oggi
Massima -- | Minima -- °F
--% Possibilità di precip.
Ieri
Massima -- | Minima -- °F
Precip. -- in
7:15 AM 4:37 PM
Luna calante, 12% visible
Pressione 30.04 in
Visibilità 10.0 miglia
Nuvole Alcuni 15000 ft
Alcuni 20000 ft
Raffreddamento del vento 46 °F
Punto di rugiada 26 °F
Umidità 44%
Piovosità -999.00 in
Spessore del manto nevoso Non disponibile.
Raggi UV 2 fuori da 12
Polline .10 fuori da 12
Qualità dell'aria Non disponibile.
Flu Activity Non disponibile.
METAR KAPA 182053Z 00000KT 10SM FEW150 FEW200 06/M04 A2998 RMK AO2 SLP170 T00561044 56016

More Conditions Fewer Conditions

Pressione 30.04 in
Visibilità 10.0 miglia
Nuvole Alcuni 15000 ft
Alcuni 20000 ft
Raffreddamento del vento 46 °F
Punto di rugiada 26 °F
Umidità 44%
Piovosità -999.00 in
Spessore del manto nevoso Non disponibile.
Raggi UV 2 fuori da 12
Polline .10 fuori da 12
Qualità dell'aria Non disponibile.
Flu Activity Non disponibile.
METAR KAPA 182053Z 00000KT 10SM FEW150 FEW200 06/M04 A2998 RMK AO2 SLP170 T00561044 56016

More Conditions Fewer Conditions

10-Day Weather Forecast

Almanac

Astronomia

Dec. 18, 2014 Alba Tramonto
Ora attuale
Crepuscolo civile
Crepuscolo nautico
Crepuscolo astronomico
Luna
Estensione della luce visibile
Lunghezza del giorno
Tomorrow will be .
, % of the Moon is Illuminated

Gli estremi di oggi

State Highs State Lows

Community

WunderPhotos

Upload Photos

1,778,999 foto caricate!

WunderBlogs® & News

Nearby

Qualità dell'aria

  Qualità dell'aria Indice AQ Inquinante
Not available.

Profondità neve

Stazione Profondità Altitudine

Attività sismica

Città  Distanza Mag. Data & Ora
Minimo Magnitudo Mostrato è 2.5.

Temperature delle acque costiere

Località Temperatura

Stazioni meteo nelle vicinanze